Time;durP1;ratioP1;P1;durP2;ratioP2;P2;SDS_P1;SDS_P2;PMS_P1;PMS_P2;Temp;Humidity;BMP_temperature;BMP_pressure;BME280_temperature;BME280_humidity;BME280_pressure;Samples;Min_cycle;Max_cycle;Signal;HPM_P1;HPM_P2
2023/05/03 00:00:25;;;;;;;6.97;1.97;;;7.70;99.90;;;;;;4976424;28;20047;-79
2023/05/03 00:02:52;;;;;;;8.85;2.67;;;7.60;99.90;;;;;;4976685;28;20054;-79
2023/05/03 00:05:18;;;;;;;5.97;2.38;;;7.60;99.90;;;;;;4975921;28;20090;-79
2023/05/03 00:07:45;;;;;;;9.65;2.42;;;7.60;99.90;;;;;;4977368;28;20125;-79
2023/05/03 00:10:12;;;;;;;10.55;2.70;;;7.60;99.90;;;;;;4976482;28;20407;-79
2023/05/03 00:12:43;;;;;;;6.88;2.45;;;7.60;99.90;;;;;;4975582;28;20054;-79
2023/05/03 00:15:09;;;;;;;9.27;2.80;;;7.60;99.90;;;;;;4976195;28;20054;-83
2023/05/03 00:17:36;;;;;;;6.70;3.35;;;7.60;99.90;;;;;;4976399;28;20177;-79
2023/05/03 00:20:03;;;;;;;7.78;2.72;;;7.50;99.90;;;;;;4959000;28;20050;-79
2023/05/03 00:22:29;;;;;;;8.55;2.47;;;7.50;99.90;;;;;;4976275;28;20122;-80
2023/05/03 00:24:55;;;;;;;8.27;2.93;;;7.60;99.90;;;;;;4976339;28;20178;-80
2023/05/03 00:27:23;;;;;;;9.48;2.70;;;7.60;99.90;;;;;;4976986;28;20059;-80
2023/05/03 00:29:51;;;;;;;6.32;2.40;;;7.50;99.90;;;;;;4975810;28;20039;-79
2023/05/03 00:32:17;;;;;;;6.65;2.78;;;7.60;99.90;;;;;;4976240;28;20054;-79
2023/05/03 00:34:43;;;;;;;7.23;2.63;;;7.50;99.90;;;;;;4937304;28;1133088;-79
2023/05/03 00:37:09;;;;;;;12.10;2.78;;;7.50;99.90;;;;;;4976101;28;20047;-79
2023/05/03 00:39:35;;;;;;;6.13;2.67;;;7.60;99.90;;;;;;4976231;28;20054;-79
2023/05/03 00:42:03;;;;;;;7.20;2.73;;;7.50;99.90;;;;;;4977140;28;20042;-79
2023/05/03 00:44:29;;;;;;;6.40;2.22;;;7.60;99.90;;;;;;4977072;28;20047;-79
2023/05/03 00:46:55;;;;;;;6.95;2.58;;;7.50;99.90;;;;;;4977599;28;20053;-79
2023/05/03 00:49:23;;;;;;;6.32;2.70;;;7.60;99.90;;;;;;4977040;28;20046;-80
2023/05/03 00:51:51;;;;;;;8.02;3.03;;;7.60;99.90;;;;;;4977002;28;20043;-80
2023/05/03 00:54:17;;;;;;;6.63;2.97;;;7.60;99.90;;;;;;4975680;28;20058;-80
2023/05/03 00:56:43;;;;;;;6.33;2.30;;;7.60;99.90;;;;;;4976912;28;20053;-79
2023/05/03 00:59:10;;;;;;;9.48;2.72;;;7.60;99.90;;;;;;4977420;28;20488;-79
2023/05/03 01:01:36;;;;;;;6.10;2.88;;;7.60;99.90;;;;;;4976687;28;20129;-80
2023/05/03 01:04:03;;;;;;;6.50;2.30;;;7.60;99.90;;;;;;4976804;28;20129;-80
2023/05/03 01:06:57;;;;;;;9.50;2.55;;;7.60;99.90;;;;;;4976653;28;20058;-80
2023/05/03 01:10:01;;;;;;;6.53;2.80;;;7.70;99.90;;;;;;4976467;28;20047;-80
2023/05/03 01:12:54;;;;;;;6.25;2.53;;;7.70;99.90;;;;;;4971414;28;20110;-80
2023/05/03 01:15:44;;;;;;;6.97;2.50;;;7.80;99.90;;;;;;4976593;28;20085;-79
2023/05/03 01:18:24;;;;;;;6.72;3.53;;;7.70;99.90;;;;;;4959769;28;20054;-79
2023/05/03 01:20:52;;;;;;;5.43;2.80;;;7.80;99.90;;;;;;4977054;28;20050;-79
2023/05/03 01:23:27;;;;;;;7.47;3.20;;;7.80;99.90;;;;;;4976373;28;20046;-84
2023/05/03 01:25:53;;;;;;;9.13;3.58;;;7.80;99.90;;;;;;4976264;28;20054;-79
2023/05/03 01:28:19;;;;;;;7.10;3.25;;;7.80;99.90;;;;;;4976868;28;20074;-83
2023/05/03 01:30:46;;;;;;;7.30;3.10;;;7.90;99.90;;;;;;4976244;28;20042;-79
2023/05/03 01:33:34;;;;;;;5.28;2.72;;;7.90;99.90;;;;;;4974994;28;20456;-79
2023/05/03 01:36:15;;;;;;;6.78;3.28;;;7.90;99.90;;;;;;4976622;28;20061;-80
2023/05/03 01:38:41;;;;;;;7.88;3.08;;;8.00;99.90;;;;;;4976444;28;20152;-79
2023/05/03 01:41:12;;;;;;;8.00;3.10;;;7.90;99.90;;;;;;4975290;28;20046;-79
2023/05/03 01:43:39;;;;;;;6.97;2.80;;;7.90;99.90;;;;;;4976045;28;20133;-79
2023/05/03 01:46:05;;;;;;;11.20;3.72;;;7.90;99.90;;;;;;4975987;28;20057;-79
2023/05/03 01:48:31;;;;;;;4.87;2.73;;;7.90;99.90;;;;;;4975878;28;20044;-79
2023/05/03 01:50:57;;;;;;;6.60;2.70;;;7.90;99.90;;;;;;4974689;28;20054;-79
2023/05/03 01:53:22;;;;;;;7.60;2.87;;;7.90;99.90;;;;;;4976611;28;20043;-79
2023/05/03 01:55:48;;;;;;;9.30;3.40;;;7.90;99.90;;;;;;4974809;28;20183;-79
2023/05/03 01:58:14;;;;;;;10.77;2.87;;;7.90;99.90;;;;;;4958490;28;20133;-79
2023/05/03 02:00:40;;;;;;;7.15;3.10;;;7.90;99.90;;;;;;4974481;28;20038;-79
2023/05/03 02:03:06;;;;;;;5.63;2.90;;;7.90;99.90;;;;;;4975591;28;20054;-79
2023/05/03 02:05:32;;;;;;;7.10;3.00;;;7.90;99.90;;;;;;4975526;28;20043;-79
2023/05/03 02:07:57;;;;;;;6.63;3.00;;;7.90;99.90;;;;;;4975226;28;20117;-79
2023/05/03 02:10:24;;;;;;;9.90;3.20;;;7.80;99.90;;;;;;4975350;28;20058;-81
2023/05/03 02:12:50;;;;;;;8.07;3.38;;;7.80;99.90;;;;;;4975551;28;20050;-79
2023/05/03 02:15:18;;;;;;;6.87;2.90;;;7.90;99.90;;;;;;4974507;28;20376;-79
2023/05/03 02:17:46;;;;;;;7.90;2.75;;;7.90;99.90;;;;;;4974691;28;20050;-79
2023/05/03 02:20:12;;;;;;;7.47;3.33;;;7.90;99.90;;;;;;4974310;28;20050;-79
2023/05/03 02:22:38;;;;;;;7.30;3.20;;;7.90;99.90;;;;;;4974248;28;20047;-79
2023/05/03 02:25:05;;;;;;;7.53;3.20;;;7.90;99.90;;;;;;4975236;28;20053;-79
2023/05/03 02:27:31;;;;;;;4.75;3.03;;;7.90;99.90;;;;;;4975170;28;20077;-79
2023/05/03 02:29:56;;;;;;;8.27;2.77;;;7.90;99.90;;;;;;4974239;28;20050;-79
2023/05/03 02:32:22;;;;;;;7.20;2.97;;;7.90;99.90;;;;;;4974471;28;20051;-80
2023/05/03 02:34:48;;;;;;;8.33;3.37;;;8.00;99.90;;;;;;4974827;28;20054;-79
2023/05/03 02:37:15;;;;;;;4.97;2.95;;;7.90;99.90;;;;;;4975132;28;20053;-79
2023/05/03 02:39:41;;;;;;;7.13;2.67;;;8.00;99.90;;;;;;4974953;28;20074;-79
2023/05/03 02:42:07;;;;;;;6.03;3.00;;;7.90;99.90;;;;;;4957403;28;20043;-79
2023/05/03 02:44:32;;;;;;;11.65;2.85;;;8.00;99.90;;;;;;4974978;28;20050;-80
2023/05/03 02:46:58;;;;;;;4.87;2.50;;;8.00;99.90;;;;;;4974046;28;20057;-79
2023/05/03 02:49:24;;;;;;;5.77;2.87;;;8.00;99.90;;;;;;4974777;28;20050;-79
2023/05/03 02:51:51;;;;;;;7.77;2.97;;;8.00;99.90;;;;;;4973883;28;20133;-78
2023/05/03 02:54:17;;;;;;;7.65;2.65;;;8.00;99.90;;;;;;4975397;28;20053;-79
2023/05/03 02:56:43;;;;;;;5.30;2.70;;;8.00;99.90;;;;;;4974884;28;20134;-79
2023/05/03 02:59:09;;;;;;;5.47;2.47;;;8.00;99.90;;;;;;4973872;28;20078;-79
2023/05/03 03:01:35;;;;;;;5.33;3.00;;;8.00;99.90;;;;;;4975198;28;20051;-80
2023/05/03 03:04:00;;;;;;;5.83;2.70;;;8.00;99.90;;;;;;4974340;28;20050;-79
2023/05/03 03:06:26;;;;;;;7.27;2.80;;;8.00;99.90;;;;;;4973552;28;20089;-79
2023/05/03 03:08:52;;;;;;;8.75;2.78;;;7.90;99.90;;;;;;4974499;28;20047;-79
2023/05/03 03:11:18;;;;;;;5.87;2.70;;;8.00;99.90;;;;;;4974376;28;20042;-79
2023/05/03 03:13:44;;;;;;;7.13;2.90;;;7.90;99.90;;;;;;4974651;28;20125;-79
2023/05/03 03:16:10;;;;;;;7.03;2.90;;;8.00;99.90;;;;;;4974674;28;20094;-78
2023/05/03 03:18:36;;;;;;;7.47;2.97;;;7.90;99.90;;;;;;4975302;28;20054;-79
2023/05/03 03:21:02;;;;;;;5.30;2.75;;;7.90;99.90;;;;;;4973492;28;20043;-78
2023/05/03 03:23:28;;;;;;;5.65;2.60;;;7.90;99.90;;;;;;4975338;28;20054;-80
2023/05/03 03:25:54;;;;;;;6.38;2.90;;;7.90;99.90;;;;;;4957429;28;20046;-79
2023/05/03 03:28:20;;;;;;;6.67;3.00;;;7.90;99.90;;;;;;4957797;28;20047;-78
2023/05/03 03:30:45;;;;;;;5.17;2.47;;;7.80;99.90;;;;;;4973553;28;20055;-78
2023/05/03 03:33:11;;;;;;;6.10;2.67;;;7.80;99.90;;;;;;4973380;28;20114;-79
2023/05/03 03:35:38;;;;;;;8.00;3.00;;;7.70;99.90;;;;;;4973940;28;20164;-80
2023/05/03 03:38:04;;;;;;;9.80;3.22;;;7.70;99.90;;;;;;4974451;28;20054;-79
2023/05/03 03:40:30;;;;;;;6.63;2.70;;;7.60;99.90;;;;;;4974436;28;20057;-79
2023/05/03 03:42:56;;;;;;;7.65;3.10;;;7.70;99.90;;;;;;4941765;28;20054;-79
2023/05/03 03:45:22;;;;;;;6.67;2.73;;;7.70;99.90;;;;;;4974972;28;20043;-79
2023/05/03 03:47:48;;;;;;;8.77;3.20;;;7.70;99.90;;;;;;4973425;28;20054;-79
2023/05/03 03:50:13;;;;;;;7.17;3.10;;;7.60;99.90;;;;;;4973699;28;20047;-79
2023/05/03 03:52:39;;;;;;;7.90;2.60;;;7.60;99.90;;;;;;4974359;28;20478;-79
2023/05/03 03:55:06;;;;;;;6.13;3.30;;;7.60;99.90;;;;;;4974385;28;20090;-78
2023/05/03 03:57:32;;;;;;;8.05;2.90;;;7.60;99.90;;;;;;4974323;28;20451;-79
2023/05/03 03:59:58;;;;;;;5.20;2.70;;;7.60;99.90;;;;;;4974314;28;20050;-79
2023/05/03 04:02:24;;;;;;;8.77;3.45;;;7.60;99.90;;;;;;4973323;28;20054;-78
2023/05/03 04:04:50;;;;;;;4.43;2.50;;;7.60;99.90;;;;;;4975367;28;20503;-79
2023/05/03 04:07:16;;;;;;;6.90;2.70;;;7.70;99.90;;;;;;4977503;28;20086;-79
2023/05/03 04:09:41;;;;;;;5.00;2.20;;;7.70;99.90;;;;;;4977525;28;20066;-79
2023/05/03 04:12:07;;;;;;;8.37;3.20;;;7.70;99.90;;;;;;4977723;28;20043;-79
2023/05/03 04:14:33;;;;;;;6.27;2.70;;;7.70;99.90;;;;;;4976678;28;20066;-79
2023/05/03 04:17:00;;;;;;;6.33;3.17;;;7.70;99.90;;;;;;4976658;28;20130;-79
2023/05/03 04:19:26;;;;;;;6.18;2.80;;;7.70;99.90;;;;;;4976485;28;20082;-79
2023/05/03 04:21:52;;;;;;;7.10;2.70;;;7.70;99.90;;;;;;4977430;28;20050;-79
2023/05/03 04:24:17;;;;;;;7.33;3.00;;;7.70;99.90;;;;;;4960187;28;20510;-79
2023/05/03 04:26:43;;;;;;;7.43;2.60;;;7.70;99.90;;;;;;4977158;28;20054;-80
2023/05/03 04:29:13;;;;;;;7.00;3.00;;;7.70;99.90;;;;;;4976552;28;20047;-79
2023/05/03 04:31:39;;;;;;;8.10;3.00;;;7.70;99.90;;;;;;4977355;28;20042;-79
2023/05/03 04:34:05;;;;;;;5.87;2.83;;;7.70;99.90;;;;;;4975929;28;20483;-79
2023/05/03 04:36:31;;;;;;;6.97;2.30;;;7.80;99.90;;;;;;4977582;28;20133;-79
2023/05/03 04:38:57;;;;;;;7.35;2.47;;;7.80;99.90;;;;;;4976243;28;20055;-79
2023/05/03 04:41:23;;;;;;;7.27;2.43;;;7.80;99.90;;;;;;4976790;28;20042;-79
2023/05/03 04:43:49;;;;;;;6.15;2.40;;;7.80;99.90;;;;;;4976138;28;20051;-79
2023/05/03 04:46:16;;;;;;;8.15;2.67;;;7.70;99.90;;;;;;4977091;28;20049;-79
2023/05/03 04:48:41;;;;;;;8.23;3.28;;;7.80;99.90;;;;;;4977266;28;20055;-79
2023/05/03 04:51:07;;;;;;;4.23;2.40;;;7.80;99.90;;;;;;4975635;28;20418;-79
2023/05/03 04:53:33;;;;;;;8.93;3.43;;;7.80;99.90;;;;;;4976849;28;20050;-79
2023/05/03 04:55:59;;;;;;;5.90;2.43;;;7.90;99.90;;;;;;4976910;28;20054;-79
2023/05/03 04:58:24;;;;;;;6.20;2.50;;;7.90;99.90;;;;;;4977426;28;20138;-79
2023/05/03 05:00:50;;;;;;;7.23;2.60;;;7.90;99.90;;;;;;4975751;28;20055;-79
2023/05/03 05:03:16;;;;;;;8.20;2.30;;;7.90;99.90;;;;;;4976825;28;20251;-79
2023/05/03 05:05:42;;;;;;;7.87;2.57;;;7.90;99.90;;;;;;4976791;28;20555;-79
2023/05/03 05:08:08;;;;;;;8.80;2.27;;;8.00;99.90;;;;;;4976742;28;20487;-79
2023/05/03 05:10:39;;;;;;;7.27;2.43;;;8.00;99.90;;;;;;4976867;28;20050;-79
2023/05/03 05:13:05;;;;;;;7.28;2.03;;;8.00;99.90;;;;;;4976027;28;20115;-79
2023/05/03 05:15:31;;;;;;;9.40;2.60;;;8.00;99.90;;;;;;4975692;28;20494;-79
2023/05/03 05:17:58;;;;;;;8.47;2.10;;;8.00;99.90;;;;;;4976504;28;20055;-79
2023/05/03 05:20:24;;;;;;;7.75;2.30;;;8.00;99.90;;;;;;4976449;28;20084;-79
2023/05/03 05:22:50;;;;;;;4.72;2.08;;;8.10;99.90;;;;;;4976688;28;20059;-79
2023/05/03 05:25:15;;;;;;;6.53;2.10;;;8.20;99.90;;;;;;4959079;28;20042;-79
2023/05/03 05:27:41;;;;;;;6.23;1.87;;;8.20;99.90;;;;;;4976284;28;20042;-79
2023/05/03 05:30:07;;;;;;;7.70;1.73;;;8.20;99.90;;;;;;4975241;28;20051;-79
2023/05/03 05:32:33;;;;;;;4.47;1.80;;;8.20;99.90;;;;;;4976158;28;20142;-79
2023/05/03 05:34:59;;;;;;;6.63;2.47;;;8.30;99.90;;;;;;4976557;28;20095;-79
2023/05/03 05:37:28;;;;;;;7.63;2.17;;;8.30;99.90;;;;;;4974855;28;20047;-79
2023/05/03 05:39:54;;;;;;;7.53;1.52;;;8.30;99.90;;;;;;4975114;28;20801;-79
2023/05/03 05:42:20;;;;;;;5.55;1.45;;;8.30;99.90;;;;;;4975991;28;20046;-79
2023/05/03 05:44:46;;;;;;;4.67;1.70;;;8.40;99.90;;;;;;4976738;28;20049;-78
2023/05/03 05:47:11;;;;;;;5.70;1.90;;;8.40;99.90;;;;;;4975228;28;20051;-78
2023/05/03 05:49:37;;;;;;;2.83;1.30;;;8.50;99.90;;;;;;4976492;28;20467;-79
2023/05/03 05:52:03;;;;;;;4.97;1.70;;;8.50;99.90;;;;;;4976661;28;20055;-79
2023/05/03 05:54:28;;;;;;;5.90;1.50;;;8.50;99.90;;;;;;4975092;28;20368;-79
2023/05/03 05:56:54;;;;;;;3.93;1.47;;;8.60;99.90;;;;;;4976304;28;20051;-80
2023/05/03 05:59:20;;;;;;;8.47;1.80;;;8.60;99.90;;;;;;4975964;28;20086;-80
2023/05/03 06:01:46;;;;;;;4.07;1.40;;;8.70;99.90;;;;;;4974165;28;20043;-80
2023/05/03 06:04:12;;;;;;;5.83;1.40;;;8.80;99.90;;;;;;4975807;28;20058;-80
2023/05/03 06:06:38;;;;;;;3.63;0.93;;;8.90;99.90;;;;;;4975549;28;20062;-80
2023/05/03 06:09:04;;;;;;;6.40;1.27;;;8.90;99.90;;;;;;4975127;28;20281;-80
2023/05/03 06:11:30;;;;;;;5.57;1.27;;;9.00;99.90;;;;;;4976231;28;20053;-79
2023/05/03 06:13:56;;;;;;;4.03;1.20;;;9.00;99.90;;;;;;4974425;28;20161;-80
2023/05/03 06:16:25;;;;;;;8.27;1.70;;;9.10;99.90;;;;;;4974216;28;20344;-80
2023/05/03 06:18:51;;;;;;;3.93;1.20;;;9.10;99.90;;;;;;4975386;28;20475;-79
2023/05/03 06:21:17;;;;;;;4.87;1.50;;;9.20;99.90;;;;;;4974435;28;20317;-79
2023/05/03 06:23:43;;;;;;;4.90;1.70;;;9.20;99.90;;;;;;4975002;28;20046;-79
2023/05/03 06:26:08;;;;;;;5.43;1.37;;;9.30;99.90;;;;;;4975299;28;20047;-80
2023/05/03 06:28:34;;;;;;;3.10;1.07;;;9.30;99.90;;;;;;4974955;28;20127;-80
2023/05/03 06:31:01;;;;;;;3.97;1.00;;;9.40;99.90;;;;;;4974242;28;20068;-81
2023/05/03 06:33:26;;;;;;;5.40;0.97;;;9.50;99.90;;;;;;4975423;28;20297;-80
2023/05/03 06:35:52;;;;;;;3.33;1.00;;;9.50;99.90;;;;;;4973967;28;20298;-81
2023/05/03 06:38:18;;;;;;;5.20;1.07;;;9.60;99.90;;;;;;4975060;28;20046;-80
2023/05/03 06:40:45;;;;;;;4.57;1.40;;;9.60;99.90;;;;;;4975122;28;20046;-80
2023/05/03 06:43:10;;;;;;;5.40;1.63;;;9.70;99.90;;;;;;4975819;28;20046;-79
2023/05/03 06:45:38;;;;;;;2.83;1.30;;;9.80;99.90;;;;;;4975532;28;20722;-79
2023/05/03 06:48:05;;;;;;;3.87;1.00;;;9.90;99.90;;;;;;4974866;28;20099;-79
2023/05/03 06:50:31;;;;;;;3.27;1.20;;;10.00;99.90;;;;;;4974949;28;20286;-82
2023/05/03 06:52:56;;;;;;;4.07;1.00;;;10.00;99.90;;;;;;4973402;28;20305;-82
2023/05/03 06:55:22;;;;;;;4.03;0.90;;;10.10;99.90;;;;;;4974649;28;20066;-82
2023/05/03 06:57:48;;;;;;;4.37;1.17;;;10.10;99.90;;;;;;4974474;28;20475;-84
2023/05/03 07:00:14;;;;;;;4.10;1.23;;;10.20;99.90;;;;;;4974762;28;20053;-80
2023/05/03 07:02:40;;;;;;;3.33;0.90;;;10.30;99.90;;;;;;4975597;28;20086;-80
2023/05/03 07:05:07;;;;;;;1.83;0.80;;;10.40;99.90;;;;;;4974834;28;20365;-80
2023/05/03 07:07:33;;;;;;;3.03;1.00;;;10.50;99.90;;;;;;4973605;28;20294;-80
2023/05/03 07:09:59;;;;;;;2.93;1.00;;;10.50;99.90;;;;;;4975281;28;20286;-80
2023/05/03 07:12:27;;;;;;;5.20;1.43;;;10.50;99.90;;;;;;4974686;28;20288;-80
2023/05/03 07:14:53;;;;;;;4.83;1.00;;;10.50;99.90;;;;;;4975460;28;20046;-80
2023/05/03 07:17:20;;;;;;;4.83;1.30;;;10.50;99.90;;;;;;4973704;28;20287;-80
2023/05/03 07:19:47;;;;;;;6.30;1.77;;;10.40;99.20;;;;;;4974343;28;20789;-80
2023/05/03 07:22:13;;;;;;;5.07;1.00;;;10.50;99.90;;;;;;4975395;28;20322;-80
2023/05/03 07:24:39;;;;;;;4.47;1.30;;;10.50;99.90;;;;;;4974762;28;20626;-80
2023/05/03 07:27:05;;;;;;;6.07;1.30;;;10.60;99.90;;;;;;4974898;28;20133;-81
2023/05/03 07:29:31;;;;;;;5.00;1.47;;;10.70;99.90;;;;;;4974827;28;20120;-79
2023/05/03 07:31:57;;;;;;;3.13;1.13;;;10.70;99.90;;;;;;4974521;28;20757;-81
2023/05/03 07:34:23;;;;;;;5.37;1.37;;;10.70;99.90;;;;;;4973133;28;20294;-80
2023/05/03 07:36:50;;;;;;;6.77;1.30;;;10.60;99.90;;;;;;4974817;28;20365;-80
2023/05/03 07:39:16;;;;;;;4.67;1.37;;;10.60;99.80;;;;;;4975067;28;20081;-80
2023/05/03 07:41:42;;;;;;;3.80;1.10;;;10.60;99.70;;;;;;4977875;28;20392;-77
2023/05/03 07:44:08;;;;;;;3.90;1.30;;;10.60;99.40;;;;;;4961686;28;20073;-82
2023/05/03 07:46:34;;;;;;;5.80;1.07;;;10.70;99.90;;;;;;4961546;28;20050;-80
2023/05/03 07:49:01;;;;;;;3.73;1.27;;;10.70;99.10;;;;;;4977199;28;20369;-74
2023/05/03 07:51:27;;;;;;;3.60;1.00;;;10.60;97.80;;;;;;4978332;28;20055;-78
2023/05/03 07:53:55;;;;;;;4.17;1.50;;;10.70;98.40;;;;;;4976983;28;20698;-80
2023/05/03 07:56:21;;;;;;;4.60;1.40;;;10.70;98.40;;;;;;4977989;28;20294;-78
2023/05/03 07:58:47;;;;;;;2.80;0.90;;;10.70;98.60;;;;;;4978694;28;20380;-80
2023/05/03 08:01:13;;;;;;;3.33;1.00;;;10.60;98.50;;;;;;4960735;28;20393;-79
2023/05/03 08:03:38;;;;;;;3.53;1.13;;;10.60;98.70;;;;;;4977917;28;20043;-77
2023/05/03 08:06:04;;;;;;;5.23;1.27;;;10.70;98.60;;;;;;4978026;28;20085;-79
2023/05/03 08:08:31;;;;;;;5.30;1.47;;;10.60;98.60;;;;;;4978335;28;20446;-80
2023/05/03 08:10:56;;;;;;;1.77;0.90;;;10.70;98.80;;;;;;4976782;28;20058;-78
2023/05/03 08:13:22;;;;;;;1.97;1.00;;;10.60;98.70;;;;;;4977661;28;20293;-74
2023/05/03 08:15:49;;;;;;;2.70;1.20;;;10.70;98.70;;;;;;4976740;28;20051;-77
2023/05/03 08:18:15;;;;;;;3.33;1.10;;;10.70;98.70;;;;;;4978051;28;20054;-78
2023/05/03 08:20:41;;;;;;;5.23;1.40;;;10.70;98.00;;;;;;4977800;28;20793;-78
2023/05/03 08:23:06;;;;;;;5.07;1.30;;;10.70;98.20;;;;;;4977259;28;20076;-77
2023/05/03 08:25:33;;;;;;;3.50;1.20;;;10.80;98.70;;;;;;4977964;28;20077;-77
2023/05/03 08:27:59;;;;;;;2.57;1.10;;;10.80;97.90;;;;;;4977468;28;20051;-78
2023/05/03 08:30:25;;;;;;;5.77;1.97;;;10.70;97.50;;;;;;4976442;28;20746;-78
2023/05/03 08:32:51;;;;;;;2.90;0.90;;;10.70;97.00;;;;;;4977368;28;20069;-77
2023/05/03 08:35:17;;;;;;;4.50;1.80;;;10.60;97.90;;;;;;4976904;28;20291;-77
2023/05/03 08:37:44;;;;;;;5.00;1.00;;;10.70;97.80;;;;;;4977261;28;20663;-76
2023/05/03 08:40:12;;;;;;;4.60;1.20;;;10.70;98.40;;;;;;4977249;28;20049;-76
2023/05/03 08:42:42;;;;;;;4.33;1.30;;;10.70;98.80;;;;;;4977105;28;20298;-77
2023/05/03 08:45:13;;;;;;;3.53;1.10;;;10.70;98.40;;;;;;4977672;28;20337;-76
2023/05/03 08:47:40;;;;;;;2.93;1.20;;;10.70;98.20;;;;;;4977435;28;20361;-77
2023/05/03 08:50:08;;;;;;;2.63;1.13;;;10.70;98.60;;;;;;4976817;28;20691;-76
2023/05/03 08:52:34;;;;;;;6.17;1.40;;;10.80;99.10;;;;;;4977030;28;20333;-78
2023/05/03 08:55:00;;;;;;;5.77;1.77;;;10.80;98.70;;;;;;4977786;28;20286;-78
2023/05/03 08:57:27;;;;;;;4.70;0.90;;;10.80;98.50;;;;;;4976969;28;20085;-77
2023/05/03 08:59:57;;;;;;;7.30;1.47;;;10.70;96.70;;;;;;4977652;28;20050;-78
2023/05/03 09:02:23;;;;;;;4.37;1.20;;;10.70;98.20;;;;;;4976781;28;20794;-80
2023/05/03 09:04:48;;;;;;;4.20;1.07;;;10.70;98.60;;;;;;4976930;28;20310;-80
2023/05/03 09:07:18;;;;;;;3.53;1.10;;;10.80;98.60;;;;;;4975782;28;20434;-83
2023/05/03 09:09:45;;;;;;;3.13;1.10;;;10.80;98.20;;;;;;4977540;28;20051;-80
2023/05/03 09:12:11;;;;;;;6.47;1.87;;;10.80;98.30;;;;;;4977094;28;20290;-80
2023/05/03 09:14:45;;;;;;;4.70;1.20;;;10.80;98.10;;;;;;4977203;28;20289;-80
2023/05/03 09:17:20;;;;;;;3.43;1.10;;;10.80;96.50;;;;;;4976586;28;20455;-82
2023/05/03 09:19:56;;;;;;;4.50;1.30;;;10.80;97.50;;;;;;4977415;28;20357;-82
2023/05/03 09:22:25;;;;;;;5.80;1.33;;;10.80;98.80;;;;;;4976384;28;20043;-83
2023/05/03 09:24:56;;;;;;;4.80;1.20;;;10.80;98.50;;;;;;4975483;28;20349;-82
2023/05/03 09:27:23;;;;;;;3.90;1.30;;;10.80;97.60;;;;;;4976417;28;20603;-78
2023/05/03 09:29:50;;;;;;;6.87;1.27;;;10.90;98.50;;;;;;4976335;28;20282;-79
2023/05/03 09:32:16;;;;;;;3.83;1.03;;;10.90;97.60;;;;;;4976308;28;20332;-79
2023/05/03 09:34:43;;;;;;;4.67;1.00;;;11.00;98.50;;;;;;4976127;28;20385;-80
2023/05/03 09:37:10;;;;;;;4.90;1.30;;;11.10;98.40;;;;;;4976988;28;20424;-81
2023/05/03 09:39:36;;;;;;;4.53;1.10;;;11.00;96.90;;;;;;4976935;28;20337;-75
2023/05/03 09:42:15;;;;;;;6.77;1.47;;;11.00;97.00;;;;;;4976279;28;20302;-80
2023/05/03 09:44:44;;;;;;;5.90;1.73;;;11.10;97.10;;;;;;4976098;28;20444;-78
2023/05/03 09:47:10;;;;;;;5.10;1.30;;;11.10;96.90;;;;;;4976101;28;20294;-77
2023/05/03 09:49:37;;;;;;;4.87;1.50;;;11.10;97.50;;;;;;4976003;28;20293;-77
2023/05/03 09:52:05;;;;;;;4.17;1.03;;;11.20;97.80;;;;;;4976703;28;20281;-76
2023/05/03 09:54:31;;;;;;;4.47;1.30;;;11.20;97.90;;;;;;4975913;28;20332;-76
2023/05/03 09:56:58;;;;;;;8.90;1.30;;;11.20;98.20;;;;;;4974849;28;20377;-76
2023/05/03 09:59:23;;;;;;;3.43;1.10;;;11.20;98.20;;;;;;4975763;28;20110;-82
2023/05/03 10:01:54;;;;;;;6.90;1.33;;;11.20;98.10;;;;;;4975101;28;20787;-82
2023/05/03 10:04:23;;;;;;;5.03;1.93;;;11.20;98.40;;;;;;4976044;28;20111;-81
2023/05/03 10:06:51;;;;;;;5.67;1.80;;;11.30;98.30;;;;;;4975653;28;20363;-82
2023/05/03 10:09:27;;;;;;;3.97;1.20;;;11.30;98.30;;;;;;4975672;28;20278;-83
2023/05/03 10:11:57;;;;;;;7.50;1.50;;;11.30;96.30;;;;;;4974862;28;20346;-84
2023/05/03 10:14:23;;;;;;;6.10;1.33;;;11.40;95.80;;;;;;4975752;28;20286;-82
2023/05/03 10:16:56;;;;;;;6.10;1.10;;;11.50;96.90;;;;;;4975945;28;20282;-85
2023/05/03 10:19:51;;;;;;;5.27;1.30;;;11.60;96.90;;;;;;4975200;28;20286;-81
2023/05/03 10:22:17;;;;;;;4.55;1.25;;;11.80;96.70;;;;;;4975367;28;20302;-81
2023/05/03 10:25:01;;;;;;;4.50;1.17;;;11.70;93.90;;;;;;4975019;28;20057;-83
2023/05/03 10:27:45;;;;;;;2.27;1.20;;;11.80;93.00;;;;;;4974292;28;20395;-81
2023/05/03 10:30:32;;;;;;;6.20;1.93;;;11.80;94.30;;;;;;4975521;28;20320;-81
2023/05/03 10:32:59;;;;;;;4.10;1.17;;;11.80;94.50;;;;;;4975247;28;20286;-78
2023/05/03 10:35:28;;;;;;;4.80;1.13;;;11.80;96.00;;;;;;4974775;28;20318;-78
2023/05/03 10:37:57;;;;;;;6.83;1.50;;;11.70;95.10;;;;;;4974437;28;20310;-78
2023/05/03 10:40:23;;;;;;;4.73;1.37;;;11.70;96.30;;;;;;4974962;28;20351;-77
2023/05/03 10:42:52;;;;;;;3.17;1.10;;;11.70;96.10;;;;;;4975580;28;20754;-78
2023/05/03 10:45:25;;;;;;;4.00;1.23;;;11.70;96.00;;;;;;4975580;28;20051;-76
2023/05/03 10:48:24;;;;;;;8.37;1.50;;;11.70;95.30;;;;;;4974010;28;20392;-78
2023/05/03 10:50:51;;;;;;;4.77;1.23;;;11.70;95.20;;;;;;4963821;28;20290;-77
2023/05/03 10:53:39;;;;;;;5.67;1.83;;;11.80;96.40;;;;;;4973942;28;20298;-77
2023/05/03 10:56:09;;;;;;;6.30;1.50;;;11.90;95.10;;;;;;4974886;28;20377;-79
2023/05/03 10:58:47;;;;;;;4.20;1.30;;;12.00;97.00;;;;;;4974786;28;20805;-78
2023/05/03 11:01:18;;;;;;;3.63;1.20;;;12.10;96.10;;;;;;4974052;28;20365;-77
2023/05/03 11:03:57;;;;;;;3.67;1.23;;;12.10;95.20;;;;;;4974794;28;20294;-77
2023/05/03 11:06:30;;;;;;;4.50;1.47;;;12.30;96.60;;;;;;4975118;28;20341;-79
2023/05/03 11:08:56;;;;;;;4.60;1.30;;;12.30;95.90;;;;;;4973721;28;20332;-79
2023/05/03 11:11:22;;;;;;;6.33;1.53;;;12.40;95.70;;;;;;4973597;28;20298;-79
2023/05/03 11:13:49;;;;;;;6.57;2.03;;;12.40;94.20;;;;;;4976276;28;20049;-81
2023/05/03 11:16:15;;;;;;;5.60;1.60;;;12.40;93.50;;;;;;4979275;28;20043;-81
2023/05/03 11:18:41;;;;;;;4.63;1.70;;;12.50;94.50;;;;;;4978699;28;20352;-86
2023/05/03 11:21:07;;;;;;;4.20;1.20;;;12.50;94.00;;;;;;4961602;28;20050;-78
2023/05/03 11:23:32;;;;;;;2.77;1.13;;;12.60;94.40;;;;;;4977691;28;20058;-79
2023/05/03 11:25:58;;;;;;;4.70;1.23;;;12.60;91.80;;;;;;4978663;28;20046;-76
2023/05/03 11:28:24;;;;;;;5.00;1.60;;;12.60;93.10;;;;;;4978592;28;20513;-76
2023/05/03 11:30:50;;;;;;;6.00;1.20;;;12.60;91.90;;;;;;4978262;28;20055;-76
2023/05/03 11:33:16;;;;;;;6.23;1.10;;;12.50;91.80;;;;;;4978471;28;20278;-77
2023/05/03 11:35:42;;;;;;;7.40;1.73;;;12.50;91.30;;;;;;4978864;28;20066;-77
2023/05/03 11:38:09;;;;;;;5.03;1.47;;;12.50;92.20;;;;;;4978374;28;20491;-75
2023/05/03 11:40:35;;;;;;;3.77;1.77;;;12.60;91.80;;;;;;4978742;28;20344;-80
2023/05/03 11:43:01;;;;;;;4.77;1.30;;;12.70;92.10;;;;;;4978597;28;20281;-76
2023/05/03 11:45:31;;;;;;;3.83;1.40;;;12.70;91.30;;;;;;4978574;28;20369;-76
2023/05/03 11:47:58;;;;;;;3.67;1.40;;;12.60;90.10;;;;;;4978178;28;20321;-76
2023/05/03 11:50:47;;;;;;;5.70;1.40;;;12.50;90.70;;;;;;4978149;28;20846;-76
2023/05/03 11:53:17;;;;;;;5.37;1.67;;;12.40;87.70;;;;;;4974769;28;20321;-76
2023/05/03 11:55:45;;;;;;;4.20;1.53;;;12.30;91.60;;;;;;4978042;28;20325;-78
2023/05/03 11:58:30;;;;;;;4.30;1.27;;;12.20;91.40;;;;;;4976744;28;20298;-74
2023/05/03 12:00:56;;;;;;;6.43;1.80;;;12.20;90.80;;;;;;4978484;28;20351;-79
2023/05/03 12:03:34;;;;;;;5.20;1.40;;;12.30;91.80;;;;;;4977963;28;20133;-77
2023/05/03 12:06:00;;;;;;;4.33;1.33;;;12.30;89.60;;;;;;4978716;28;20109;-78
2023/05/03 12:08:33;;;;;;;3.73;1.60;;;12.30;91.60;;;;;;4976873;28;20675;-79
2023/05/03 12:11:01;;;;;;;4.67;1.20;;;12.30;90.70;;;;;;4978500;28;20131;-80
2023/05/03 12:13:34;;;;;;;4.40;1.60;;;12.20;90.10;;;;;;4977707;28;20286;-78
2023/05/03 12:16:00;;;;;;;7.23;1.73;;;12.10;91.40;;;;;;4978295;28;20279;-77
2023/05/03 12:18:27;;;;;;;4.47;1.17;;;12.00;91.80;;;;;;4976643;28;20293;-78
2023/05/03 12:20:57;;;;;;;3.20;1.30;;;12.00;92.20;;;;;;4977443;28;20306;-81
2023/05/03 12:23:26;;;;;;;5.07;1.50;;;12.00;91.80;;;;;;4977592;28;20686;-81
2023/05/03 12:25:52;;;;;;;5.83;1.37;;;12.00;91.40;;;;;;4976870;28;20274;-81
2023/05/03 12:28:18;;;;;;;5.73;1.50;;;12.00;91.00;;;;;;4977344;28;20374;-81
2023/05/03 12:30:44;;;;;;;4.53;1.33;;;12.10;91.40;;;;;;4978183;28;20047;-79
2023/05/03 12:33:10;;;;;;;4.00;1.17;;;12.10;92.00;;;;;;4977376;28;20281;-80
2023/05/03 12:35:36;;;;;;;4.37;1.80;;;12.20;92.40;;;;;;4976096;28;20378;-80
2023/05/03 12:38:04;;;;;;;5.57;1.90;;;12.20;92.90;;;;;;4977261;28;20043;-79
2023/05/03 12:40:29;;;;;;;4.47;1.70;;;12.20;93.00;;;;;;4960295;28;20348;-79
2023/05/03 12:42:55;;;;;;;5.07;1.77;;;12.20;92.60;;;;;;4976286;28;20679;-81
2023/05/03 12:45:21;;;;;;;3.50;1.23;;;12.20;93.70;;;;;;4975910;28;20613;-81
2023/05/03 12:47:47;;;;;;;7.33;1.50;;;12.20;92.20;;;;;;4977135;28;20050;-84
2023/05/03 12:50:13;;;;;;;5.03;1.50;;;12.10;91.60;;;;;;4977361;28;20377;-80
2023/05/03 12:52:38;;;;;;;6.93;1.40;;;12.10;92.20;;;;;;4976741;28;20129;-80
2023/05/03 12:55:05;;;;;;;3.57;1.60;;;12.10;92.80;;;;;;4976990;28;20053;-78